Time;durP1;ratioP1;P1;durP2;ratioP2;P2;SDS_P1;SDS_P2;PMS_P1;PMS_P2;Temp;Humidity;BMP_temperature;BMP_pressure;BME280_temperature;BME280_humidity;BME280_pressure;Samples;Min_cycle;Max_cycle;Signal;HPM_P1;HPM_P2
2021/12/10 00:00:23;;;;;;;92.83;47.13;;;;;;;3.85;100.00;-23923.94;5053252;28;20178;-71
2021/12/10 00:02:49;;;;;;;88.00;47.30;;;;;;;4.26;100.00;-23935.50;5053283;28;20189;-71
2021/12/10 00:05:31;;;;;;;89.10;45.67;;;;;;;4.38;100.00;-23938.75;5054404;28;20239;-71
2021/12/10 00:07:58;;;;;;;88.53;45.67;;;;;;;4.32;100.00;-23937.19;5052911;28;20304;-72
2021/12/10 00:10:34;;;;;;;87.10;45.97;;;;;;;4.34;100.00;-23937.78;5053348;28;20175;-72
2021/12/10 00:13:00;;;;;;;86.63;44.93;;;;;;;3.85;100.00;-23923.81;5052931;28;20178;-73
2021/12/10 00:15:29;;;;;;;90.97;47.43;;;;;;;4.06;100.00;-23929.78;5051491;28;20171;-72
2021/12/10 00:17:57;;;;;;;87.00;46.70;;;;;;;4.13;100.00;-23931.66;5051946;28;20174;-71
2021/12/10 00:20:27;;;;;;;93.80;45.70;;;;;;;4.34;100.00;-23937.63;5051715;28;20174;-71
2021/12/10 00:22:59;;;;;;;85.60;45.47;;;;;;;4.45;100.00;-23940.91;5051942;28;20219;-70
2021/12/10 00:25:37;;;;;;;85.03;45.03;;;;;;;4.35;100.00;-23938.06;5051989;28;20202;-72
2021/12/10 00:28:16;;;;;;;86.83;44.90;;;;;;;4.37;100.00;-23938.47;5052070;28;20193;-71
2021/12/10 00:33:41;;;;;;;89.87;46.37;;;;;;;4.44;100.00;-23940.63;5051547;28;20197;-71
2021/12/10 00:36:07;;;;;;;89.67;46.13;;;;;;;3.81;100.00;-23922.66;5051508;28;20262;-71
2021/12/10 00:38:34;;;;;;;90.53;47.77;;;;;;;4.15;100.00;-23932.34;5051834;28;20174;-72
2021/12/10 00:41:00;;;;;;;87.67;46.83;;;;;;;4.36;100.00;-23938.19;5051693;28;20209;-72
2021/12/10 00:43:26;;;;;;;95.13;46.87;;;;;;;4.23;100.00;-23934.50;5051444;28;20170;-73
2021/12/10 00:45:52;;;;;;;94.60;46.70;;;;;;;3.84;100.00;-23923.66;5050315;28;20182;-72
2021/12/10 00:48:19;;;;;;;95.57;50.23;;;;;;;4.06;100.00;-23929.66;5051819;28;20253;-72
2021/12/10 00:50:48;;;;;;;95.50;48.43;;;;;;;4.04;100.00;-23929.22;5051885;28;20179;-72
2021/12/10 00:53:16;;;;;;;89.47;48.53;;;;;;;3.99;100.00;-23927.81;5051682;28;20178;-71
2021/12/10 00:55:42;;;;;;;93.87;46.63;;;;;;;4.42;100.00;-23939.91;5052258;28;20171;-71
2021/12/10 00:58:08;;;;;;;87.83;48.87;;;;;;;4.50;100.00;-23942.19;5046132;28;20187;-72
2021/12/10 01:00:44;;;;;;;92.47;45.97;;;;;;;4.53;100.00;-23942.91;5051503;28;20183;-71
2021/12/10 01:03:12;;;;;;;92.33;47.07;;;;;;;4.44;100.00;-23940.47;5051726;28;20718;-71
2021/12/10 01:05:40;;;;;;;90.03;47.77;;;;;;;3.97;100.00;-23927.22;5051463;28;20175;-71
2021/12/10 01:08:06;;;;;;;90.40;47.43;;;;;;;4.52;100.00;-23942.75;5051804;28;20191;-70
2021/12/10 01:10:43;;;;;;;93.47;47.17;;;;;;;4.22;100.00;-23934.22;5051511;28;20181;-71
2021/12/10 01:13:13;;;;;;;79.87;44.70;;;;;;;4.63;100.00;-23945.88;5049880;28;20177;-71
2021/12/10 01:24:32;;;;;;;92.37;47.73;;;;;;;4.67;100.00;-23947.03;5051592;28;20200;-72
2021/12/10 01:27:08;;;;;;;90.87;48.60;;;;;;;4.71;100.00;-23948.16;5055006;28;20554;-71
2021/12/10 01:29:42;;;;;;;102.60;53.97;;;;;;;4.94;100.00;-23954.56;5055031;28;20622;-71
2021/12/10 01:32:11;;;;;;;102.77;53.77;;;;;;;4.67;100.00;-23946.88;5055077;28;20185;-71
2021/12/10 01:34:36;;;;;;;83.33;46.77;;;;;;;4.51;100.00;-23942.47;5054952;28;20189;-71
2021/12/10 01:37:02;;;;;;;85.63;45.30;;;;;;;4.39;100.00;-23939.06;5054932;28;20257;-71
2021/12/10 01:39:31;;;;;;;90.83;48.67;;;;;;;4.61;100.00;-23945.31;5054433;28;20634;-71
2021/12/10 01:42:13;;;;;;;89.67;47.87;;;;;;;4.76;100.00;-23949.44;5053262;28;20222;-71
2021/12/10 01:44:42;;;;;;;84.07;45.07;;;;;;;4.60;100.00;-23944.88;5054628;28;20204;-70
2021/12/10 01:47:08;;;;;;;81.87;45.27;;;;;;;4.84;100.00;-23951.84;5053255;28;20183;-72
2021/12/10 01:49:34;;;;;;;82.60;42.80;;;;;;;4.88;100.00;-23953.00;5054457;28;20378;-72
2021/12/10 01:51:59;;;;;;;87.17;45.23;;;;;;;4.68;100.00;-23947.31;5054710;28;20170;-72
2021/12/10 01:54:31;;;;;;;82.00;42.50;;;;;;;4.88;100.00;-23952.84;5054508;28;20181;-70
2021/12/10 01:57:00;;;;;;;85.17;43.23;;;;;;;4.44;100.00;-23940.47;5054625;28;20167;-71
2021/12/10 01:59:28;;;;;;;81.60;43.90;;;;;;;4.32;100.00;-23937.19;5054660;28;20171;-71
2021/12/10 02:01:58;;;;;;;84.30;46.17;;;;;;;4.34;100.00;-23937.78;5053068;28;20202;-71
2021/12/10 02:04:27;;;;;;;80.97;42.43;;;;;;;4.63;100.00;-23945.75;5054584;28;20263;-71
2021/12/10 02:06:53;;;;;;;82.17;43.63;;;;;;;4.49;100.00;-23941.91;5053002;28;20557;-71
2021/12/10 02:09:19;;;;;;;87.33;45.73;;;;;;;4.71;100.00;-23948.16;5053507;28;20175;-71
2021/12/10 02:11:45;;;;;;;80.53;42.67;;;;;;;4.56;100.00;-23943.75;5054310;28;20178;-71
2021/12/10 02:14:11;;;;;;;82.07;43.20;;;;;;;4.64;100.00;-23946.16;5054682;28;20220;-71
2021/12/10 02:16:37;;;;;;;79.53;42.80;;;;;;;4.87;100.00;-23952.56;5054400;28;20167;-71
2021/12/10 02:19:06;;;;;;;75.40;41.00;;;;;;;4.13;100.00;-23931.78;5053865;28;20167;-70
2021/12/10 02:21:34;;;;;;;79.10;43.90;;;;;;;4.85;100.00;-23952.00;5052920;28;20265;-71
2021/12/10 02:24:01;;;;;;;76.07;42.10;;;;;;;4.98;100.00;-23955.69;5053564;28;20201;-70
2021/12/10 02:26:30;;;;;;;81.17;43.33;;;;;;;4.81;100.00;-23950.84;5053369;28;20201;-70
2021/12/10 02:28:56;;;;;;;84.03;42.33;;;;;;;4.53;100.00;-23943.03;5053499;28;20182;-70
2021/12/10 02:31:22;;;;;;;80.90;42.07;;;;;;;4.53;100.00;-23943.03;5053805;28;20175;-71
2021/12/10 02:33:48;;;;;;;86.87;43.93;;;;;;;4.56;100.00;-23943.75;5053245;28;20181;-71
2021/12/10 02:36:13;;;;;;;86.23;43.53;;;;;;;4.61;100.00;-23945.31;5052745;28;20175;-72
2021/12/10 02:38:48;;;;;;;96.43;46.70;;;;;;;4.51;100.00;-23942.47;5052729;28;20171;-72
2021/12/10 02:41:15;;;;;;;91.33;45.10;;;;;;;4.77;100.00;-23949.72;5052918;28;20693;-71
2021/12/10 02:43:41;;;;;;;94.83;45.17;;;;;;;4.34;100.00;-23937.63;5051643;28;20293;-71
2021/12/10 02:46:07;;;;;;;92.33;44.70;;;;;;;4.88;100.00;-23953.00;5052695;28;20207;-71
2021/12/10 02:48:33;;;;;;;105.67;48.00;;;;;;;5.00;100.00;-23956.13;5053101;28;20576;-72
2021/12/10 02:51:01;;;;;;;101.93;46.43;;;;;;;4.79;100.00;-23950.28;5053139;28;20178;-72
2021/12/10 02:53:29;;;;;;;103.60;48.10;;;;;;;5.07;100.00;-23958.13;5052307;28;20723;-71
2021/12/10 02:55:57;;;;;;;99.63;46.43;;;;;;;4.64;100.00;-23946.03;5051920;28;20186;-72
2021/12/10 02:58:23;;;;;;;96.87;47.43;;;;;;;5.09;100.00;-23958.81;5051966;28;20567;-72
2021/12/10 03:01:01;;;;;;;97.60;47.33;;;;;;;4.61;100.00;-23945.31;5053014;28;20175;-72
2021/12/10 03:03:27;;;;;;;92.67;44.07;;;;;;;4.98;100.00;-23955.69;5053567;28;20645;-72
2021/12/10 03:05:52;;;;;;;94.77;45.83;;;;;;;5.04;100.00;-23957.25;5051984;28;20178;-72
2021/12/10 03:08:18;;;;;;;91.17;45.00;;;;;;;4.97;100.00;-23955.41;5053240;28;20634;-72
2021/12/10 03:10:44;;;;;;;102.17;48.40;;;;;;;5.09;100.00;-23958.81;5053245;28;20174;-72
2021/12/10 03:13:11;;;;;;;100.73;46.17;;;;;;;4.62;100.00;-23945.59;5052974;28;20542;-72
2021/12/10 03:15:37;;;;;;;101.13;49.83;;;;;;;4.98;100.00;-23955.69;5053290;28;20175;-72
2021/12/10 03:18:07;;;;;;;103.87;48.63;;;;;;;5.02;100.00;-23956.69;5052822;28;20169;-72
2021/12/10 03:20:33;;;;;;;116.87;50.17;;;;;;;4.99;100.00;-23955.84;5053183;28;20186;-72
2021/12/10 03:23:01;;;;;;;98.93;46.20;;;;;;;5.12;100.00;-23959.53;5052816;28;20171;-72
2021/12/10 03:25:26;;;;;;;103.47;47.53;;;;;;;5.08;100.00;-23958.53;5051335;28;20609;-72
2021/12/10 03:27:52;;;;;;;93.23;44.77;;;;;;;4.81;100.00;-23950.84;5052811;28;20240;-72
2021/12/10 03:30:25;;;;;;;97.47;45.83;;;;;;;4.83;100.00;-23951.56;5053174;28;20186;-72
2021/12/10 03:32:52;;;;;;;94.23;44.63;;;;;;;4.82;100.00;-23951.16;5052898;28;20249;-70
2021/12/10 03:35:31;;;;;;;87.43;44.73;;;;;;;5.12;100.00;-23959.53;5052771;28;20175;-72
2021/12/10 03:37:59;;;;;;;96.23;44.47;;;;;;;5.07;100.00;-23958.13;5051310;28;20174;-71
2021/12/10 03:40:25;;;;;;;97.13;44.23;;;;;;;5.28;100.00;-23964.22;5052370;28;20177;-71
2021/12/10 03:42:58;;;;;;;91.53;42.93;;;;;;;5.31;100.00;-23965.09;5051298;28;20226;-71
2021/12/10 03:45:24;;;;;;;95.03;43.77;;;;;;;5.33;100.00;-23965.50;5051676;28;20576;-71
2021/12/10 03:47:50;;;;;;;89.17;42.13;;;;;;;5.13;100.00;-23959.81;5051762;28;20552;-71
2021/12/10 03:50:26;;;;;;;90.97;42.30;;;;;;;5.32;100.00;-23965.38;5052324;28;20171;-71
2021/12/10 03:52:52;;;;;;;101.10;45.03;;;;;;;5.44;100.00;-23968.63;5052567;28;20202;-71
2021/12/10 03:55:18;;;;;;;94.13;43.80;;;;;;;4.97;100.00;-23955.41;5052216;28;20663;-71
2021/12/10 03:57:45;;;;;;;97.97;45.17;;;;;;;4.91;100.00;-23953.72;5052271;28;20175;-71
2021/12/10 04:00:11;;;;;;;100.63;45.77;;;;;;;5.21;100.00;-23962.09;5052098;28;20179;-71
2021/12/10 04:02:36;;;;;;;111.27;45.43;;;;;;;5.24;100.00;-23962.94;5052204;28;20736;-71
2021/12/10 04:05:02;;;;;;;104.37;45.90;;;;;;;4.86;100.00;-23952.44;5052485;28;20776;-71
2021/12/10 04:07:28;;;;;;;100.90;45.27;;;;;;;5.11;100.00;-23959.25;5052242;28;20209;-71
2021/12/10 04:09:54;;;;;;;96.53;45.07;;;;;;;5.25;100.00;-23963.25;5052205;28;20206;-71
2021/12/10 04:12:21;;;;;;;99.57;44.40;;;;;;;5.17;100.00;-23961.09;5052000;28;20232;-71
2021/12/10 04:14:49;;;;;;;105.73;45.10;;;;;;;4.87;100.00;-23952.56;5052220;28;20232;-71
2021/12/10 04:17:18;;;;;;;98.60;45.37;;;;;;;5.04;100.00;-23957.25;5052223;28;20175;-71
2021/12/10 04:19:45;;;;;;;105.37;45.73;;;;;;;5.11;100.00;-23959.25;5053114;28;20211;-70
2021/12/10 04:22:12;;;;;;;101.27;45.50;;;;;;;5.25;100.00;-23963.25;5052051;28;20214;-71
2021/12/10 04:24:40;;;;;;;104.60;45.07;;;;;;;4.94;100.00;-23954.56;5049808;28;20684;-70
2021/12/10 04:27:09;;;;;;;100.43;46.57;;;;;;;5.14;100.00;-23960.09;5052479;28;20182;-72
2021/12/10 04:29:35;;;;;;;103.50;45.37;;;;;;;5.02;100.00;-23956.84;5051696;28;20204;-71
2021/12/10 04:32:08;;;;;;;97.63;46.27;;;;;;;5.10;100.00;-23959.13;5052501;28;20662;-72
2021/12/10 04:34:34;;;;;;;105.80;47.17;;;;;;;5.22;100.00;-23962.38;5051415;28;20190;-72
2021/12/10 04:37:02;;;;;;;98.83;46.27;;;;;;;5.20;100.00;-23961.97;5051847;28;20657;-72
2021/12/10 04:39:29;;;;;;;100.70;43.20;;;;;;;5.03;100.00;-23957.13;5050581;28;20602;-72
2021/12/10 04:41:55;;;;;;;100.60;45.43;;;;;;;4.79;100.00;-23950.28;5050287;28;20226;-70
2021/12/10 04:44:20;;;;;;;92.53;44.67;;;;;;;4.61;100.00;-23945.16;5051663;28;20220;-72
2021/12/10 04:46:47;;;;;;;102.87;44.70;;;;;;;5.07;100.00;-23958.25;5051905;28;20223;-71
2021/12/10 04:49:14;;;;;;;97.30;43.37;;;;;;;4.58;100.00;-23944.47;5050368;28;20183;-71
2021/12/10 04:51:53;;;;;;;96.90;43.77;;;;;;;4.74;100.00;-23948.88;5051524;28;20175;-71
2021/12/10 04:54:21;;;;;;;98.53;43.63;;;;;;;5.29;100.00;-23964.38;5050324;28;20641;-71
2021/12/10 04:56:48;;;;;;;103.63;46.13;;;;;;;4.95;100.00;-23954.84;5050133;28;20178;-71
2021/12/10 04:59:17;;;;;;;102.90;45.67;;;;;;;5.03;100.00;-23956.97;5050003;28;20175;-71
2021/12/10 05:01:44;;;;;;;101.77;44.93;;;;;;;4.91;100.00;-23953.72;5054083;28;20159;-71
2021/12/10 05:04:11;;;;;;;97.83;47.67;;;;;;;5.11;100.00;-23959.41;5055693;28;20210;-71
2021/12/10 05:06:37;;;;;;;103.27;45.87;;;;;;;5.21;100.00;-23962.09;5055239;28;20615;-71
2021/12/10 05:09:06;;;;;;;100.00;44.27;;;;;;;5.48;100.00;-23969.63;5054942;28;20220;-72
2021/12/10 05:11:32;;;;;;;93.27;44.20;;;;;;;5.19;100.00;-23961.66;5053766;28;20642;-72
2021/12/10 05:13:58;;;;;;;92.10;43.23;;;;;;;5.27;100.00;-23963.94;5051542;28;20232;-71
2021/12/10 05:16:26;;;;;;;99.67;43.93;;;;;;;5.19;100.00;-23961.53;5052979;28;20236;-75
2021/12/10 05:18:59;;;;;;;103.03;45.27;;;;;;;5.56;100.00;-23971.91;5051826;28;20303;-72
2021/12/10 05:21:27;;;;;;;110.27;44.93;;;;;;;5.38;100.00;-23966.94;5052147;28;20568;-71
2021/12/10 05:23:53;;;;;;;105.17;42.77;;;;;;;5.20;100.00;-23961.97;5053355;28;20203;-72
2021/12/10 05:26:19;;;;;;;113.83;44.30;;;;;;;5.78;100.00;-23978.16;5052988;28;20190;-71
2021/12/10 05:28:45;;;;;;;104.73;43.53;;;;;;;5.29;100.00;-23964.50;5054240;28;20269;-75
2021/12/10 05:31:11;;;;;;;105.17;43.93;;;;;;;5.39;100.00;-23967.06;5054523;28;20206;-74
2021/12/10 05:33:37;;;;;;;104.97;41.93;;;;;;;5.36;100.00;-23966.38;5054182;28;20285;-72
2021/12/10 05:36:03;;;;;;;119.67;45.23;;;;;;;5.88;100.00;-23980.88;5052335;28;20610;-72
2021/12/10 05:38:31;;;;;;;120.87;44.63;;;;;;;5.88;100.00;-23980.88;5053507;28;20601;-72
2021/12/10 05:40:59;;;;;;;122.90;43.80;;;;;;;5.77;100.00;-23978.03;5052790;28;20190;-73
2021/12/10 05:43:25;;;;;;;128.13;47.03;;;;;;;5.75;100.00;-23977.44;5054406;28;20261;-72
2021/12/10 05:45:51;;;;;;;111.27;43.33;;;;;;;5.91;100.00;-23981.72;5053933;28;20167;-73
2021/12/10 05:48:18;;;;;;;124.47;47.67;;;;;;;5.97;100.00;-23983.41;5053999;28;20181;-72
2021/12/10 05:50:44;;;;;;;115.40;46.37;;;;;;;5.91;100.00;-23981.88;5054374;28;20185;-71
2021/12/10 05:53:09;;;;;;;108.53;44.73;;;;;;;5.58;100.00;-23972.47;5053711;28;20178;-73
2021/12/10 05:55:36;;;;;;;108.00;46.00;;;;;;;5.69;100.00;-23975.59;5053605;28;20316;-72
2021/12/10 05:58:03;;;;;;;111.00;44.90;;;;;;;5.93;100.00;-23982.28;5052319;28;20277;-72
2021/12/10 06:00:36;;;;;;;114.50;47.83;;;;;;;5.98;100.00;-23983.72;5053696;28;20262;-72
2021/12/10 06:03:02;;;;;;;121.50;51.73;;;;;;;6.04;100.00;-23985.56;5054050;28;20195;-72
2021/12/10 06:05:30;;;;;;;109.07;49.27;;;;;;;5.48;100.00;-23969.63;5053571;28;20238;-73
2021/12/10 06:07:55;;;;;;;105.33;49.23;;;;;;;6.16;100.00;-23988.81;5053433;28;20630;-73
2021/12/10 06:10:22;;;;;;;165.60;70.27;;;;;;;6.05;100.00;-23985.69;5052396;28;20236;-73
2021/12/10 06:12:51;;;;;;;120.07;49.33;;;;;;;6.05;100.00;-23985.84;5055192;28;20175;-73
2021/12/10 06:15:20;;;;;;;118.10;49.13;;;;;;;5.83;100.00;-23979.44;5056282;28;20295;-73
2021/12/10 06:17:47;;;;;;;100.23;44.70;;;;;;;6.05;100.00;-23985.84;5055000;28;20668;-72
2021/12/10 06:20:21;;;;;;;109.80;47.57;;;;;;;6.00;100.00;-23984.41;5055391;28;20174;-74
2021/12/10 06:22:47;;;;;;;102.10;43.87;;;;;;;5.93;100.00;-23982.44;5055094;28;20179;-72
2021/12/10 06:25:14;;;;;;;94.70;44.27;;;;;;;6.53;100.00;-23999.19;5055302;28;20209;-73
2021/12/10 06:27:44;;;;;;;94.30;44.13;;;;;;;6.40;100.00;-23995.63;5056405;28;20182;-72
2021/12/10 06:30:16;;;;;;;96.03;39.13;;;;;;;6.27;100.00;-23991.81;5057222;28;20183;-73
2021/12/10 06:32:43;;;;;;;92.97;38.93;;;;;;;6.35;100.00;-23994.06;5060453;28;20689;-73
2021/12/10 06:35:11;;;;;;;95.67;39.73;;;;;;;6.04;100.00;-23985.41;5058382;28;20214;-73
2021/12/10 06:37:38;;;;;;;107.33;40.73;;;;;;;6.42;100.00;-23996.06;5054606;28;20206;-73
2021/12/10 06:40:09;;;;;;;98.63;40.17;;;;;;;6.54;100.00;-23999.63;5054070;28;20210;-74
2021/12/10 06:42:35;;;;;;;103.93;40.53;;;;;;;6.35;100.00;-23994.06;5058095;28;20226;-74
2021/12/10 06:45:16;;;;;;;100.47;40.53;;;;;;;6.21;100.00;-23990.25;5057535;28;20218;-75
2021/12/10 06:47:47;;;;;;;97.03;40.13;;;;;;;5.94;100.00;-23982.72;5038643;28;20170;-74
2021/12/10 06:50:16;;;;;;;96.97;40.33;;;;;;;6.73;100.00;-24004.72;5055102;28;20175;-73
2021/12/10 06:52:42;;;;;;;106.03;44.13;;;;;;;6.64;100.00;-24002.44;5052442;28;20183;-74
2021/12/10 06:55:12;;;;;;;103.73;45.23;;;;;;;6.87;100.00;-24008.69;5054673;28;20179;-75
2021/12/10 06:57:42;;;;;;;101.23;44.23;;;;;;;6.78;100.00;-24006.13;5055026;28;20171;-72
2021/12/10 07:00:18;;;;;;;102.00;43.03;;;;;;;6.87;100.00;-24008.84;5055086;28;20253;-74
2021/12/10 07:02:44;;;;;;;105.70;42.10;;;;;;;6.80;100.00;-24006.72;5053261;28;20264;-74
2021/12/10 07:05:14;;;;;;;101.70;43.10;;;;;;;6.76;100.00;-24005.72;5054543;28;20193;-76
2021/12/10 07:07:40;;;;;;;105.80;44.63;;;;;;;6.80;100.00;-24006.72;5052653;28;20173;-73
2021/12/10 07:10:08;;;;;;;100.97;43.70;;;;;;;6.72;100.00;-24004.56;5052147;28;20181;-73
2021/12/10 07:12:38;;;;;;;101.20;43.37;;;;;;;7.26;100.00;-24019.75;5052380;28;20175;-72
2021/12/10 07:15:08;;;;;;;102.50;44.17;;;;;;;7.52;100.00;-24027.13;5052378;28;20257;-74
2021/12/10 07:17:34;;;;;;;96.43;42.07;;;;;;;7.50;100.00;-24026.41;5050661;28;20181;-72
2021/12/10 07:19:59;;;;;;;90.00;40.73;;;;;;;7.60;100.00;-24029.09;5051798;28;20274;-73
2021/12/10 07:22:25;;;;;;;93.80;39.47;;;;;;;7.16;100.00;-24016.78;5052172;28;20174;-72
2021/12/10 07:24:51;;;;;;;89.10;37.93;;;;;;;7.41;100.00;-24023.88;5051893;28;20281;-72
2021/12/10 07:27:16;;;;;;;81.43;35.83;;;;;;;7.54;100.00;-24027.56;5051202;28;20171;-74
2021/12/10 07:29:42;;;;;;;78.43;35.70;;;;;;;7.35;100.00;-24022.16;5052328;28;20248;-72
2021/12/10 07:32:12;;;;;;;77.00;36.70;;;;;;;7.54;100.00;-24027.56;5052876;28;20170;-72
2021/12/10 07:34:38;;;;;;;84.80;36.93;;;;;;;7.58;100.00;-24028.69;5051893;28;20183;-72
2021/12/10 07:37:04;;;;;;;75.57;33.77;;;;;;;7.54;100.00;-24027.56;5050785;28;20193;-66
2021/12/10 07:39:30;;;;;;;74.70;34.77;;;;;;;7.84;100.00;-24036.06;5050670;28;20284;-66
2021/12/10 07:41:56;;;;;;;77.93;34.37;;;;;;;7.88;100.00;-24037.19;5051758;28;20212;-66
2021/12/10 07:44:28;;;;;;;69.57;33.93;;;;;;;8.07;100.00;-24042.28;5052113;28;20198;-68
2021/12/10 07:46:55;;;;;;;69.00;32.23;;;;;;;8.08;100.00;-24042.56;5052019;28;20709;-68
2021/12/10 07:49:29;;;;;;;68.13;31.67;;;;;;;8.35;100.00;-24050.38;5050410;28;20185;-66
2021/12/10 07:52:04;;;;;;;67.50;31.87;;;;;;;8.47;100.00;-24053.63;5050749;28;20179;-67
2021/12/10 07:54:38;;;;;;;60.17;30.90;;;;;;;8.60;100.00;-24057.16;5050631;28;20268;-72
2021/12/10 07:57:04;;;;;;;58.90;29.37;;;;;;;8.56;100.00;-24056.16;5049540;28;20173;-72
2021/12/10 07:59:29;;;;;;;55.00;27.73;;;;;;;9.11;100.00;-24071.59;5048245;28;20193;-72
2021/12/10 08:01:55;;;;;;;55.83;28.83;;;;;;;8.91;100.00;-24065.94;5050141;28;20178;-71
2021/12/10 08:04:20;;;;;;;54.42;28.30;;;;;;;9.61;100.00;-24085.44;5051835;28;20198;-72
2021/12/10 08:06:47;;;;;;;51.10;28.00;;;;;;;9.45;100.00;-24081.06;5051165;28;20214;-73
2021/12/10 08:09:17;;;;;;;51.33;28.80;;;;;;;9.53;100.00;-24083.31;5051861;28;20175;-73
2021/12/10 08:11:42;;;;;;;57.65;29.30;;;;;;;9.85;100.00;-24092.06;5050106;28;20239;-72
2021/12/10 08:14:09;;;;;;;48.67;25.77;;;;;;;9.81;100.00;-24090.94;5050750;28;20236;-71
2021/12/10 08:16:36;;;;;;;47.17;25.20;;;;;;;9.40;100.00;-24079.63;5050821;28;20179;-71
2021/12/10 08:19:12;;;;;;;44.70;25.38;;;;;;;9.94;100.00;-24094.63;5052147;28;20174;-72
2021/12/10 08:21:39;;;;;;;39.33;24.27;;;;;;;10.19;100.00;-24101.69;5044352;28;20190;-72
2021/12/10 08:24:06;;;;;;;49.47;26.45;;;;;;;10.51;100.00;-24110.72;5049070;28;20317;-73
2021/12/10 08:26:31;;;;;;;39.72;22.48;;;;;;;10.39;100.00;-24107.31;5050494;28;20182;-71
2021/12/10 08:28:57;;;;;;;42.45;21.52;;;;;;;10.53;100.00;-24111.13;5051700;28;20194;-70
2021/12/10 08:31:28;;;;;;;39.78;19.85;;;;;;;10.62;100.00;-24113.81;5051445;28;20183;-73
2021/12/10 08:33:54;;;;;;;36.10;20.85;;;;;;;11.01;100.00;-24124.53;5050449;28;20236;-71
2021/12/10 08:36:22;;;;;;;31.90;18.45;;;;;;;10.49;100.00;-24110.16;5053713;28;20214;-71
2021/12/10 08:38:49;;;;;;;32.28;18.98;;;;;;;10.68;100.00;-24115.38;5054788;28;20213;-71
2021/12/10 08:41:19;;;;;;;27.75;17.08;;;;;;;10.78;100.00;-24118.03;5053445;28;20652;-71
2021/12/10 08:43:45;;;;;;;31.08;18.75;;;;;;;10.75;100.00;-24117.19;5054275;28;20183;-71
2021/12/10 08:46:15;;;;;;;30.98;17.65;;;;;;;10.83;100.00;-24119.59;5054745;28;20298;-70
2021/12/10 08:48:48;;;;;;;25.77;16.05;;;;;;;10.79;100.00;-24118.34;5055620;28;20186;-72
2021/12/10 08:51:21;;;;;;;27.60;16.15;;;;;;;11.12;100.00;-24127.63;5056061;28;20178;-71
2021/12/10 08:53:48;;;;;;;28.80;16.42;;;;;;;11.36;100.00;-24134.41;5055523;28;20190;-71
2021/12/10 08:56:14;;;;;;;26.05;15.63;;;;;;;11.48;100.00;-24137.78;5054034;28;20174;-71
2021/12/10 08:58:41;;;;;;;24.35;14.68;;;;;;;11.67;100.00;-24143.00;5054933;28;20545;-70
2021/12/10 09:01:20;;;;;;;28.42;15.60;;;;;;;11.60;100.00;-24140.88;5055213;28;20696;-72
2021/12/10 09:03:49;;;;;;;26.50;15.35;;;;;;;11.93;100.00;-24150.19;5055529;28;20652;-71
2021/12/10 09:06:16;;;;;;;23.35;14.60;;;;;;;11.65;100.00;-24142.28;5055431;28;20169;-71
2021/12/10 09:08:41;;;;;;;22.52;13.25;;;;;;;11.57;100.00;-24140.19;5055455;28;20174;-70
2021/12/10 09:11:09;;;;;;;24.35;14.13;;;;;;;12.33;100.00;-24161.31;5055354;28;20221;-72
2021/12/10 09:13:35;;;;;;;23.90;14.93;;;;;;;12.07;100.00;-24154.13;5054161;28;20177;-72
2021/12/10 09:16:05;;;;;;;24.65;14.80;;;;;;;12.55;100.00;-24167.34;5055486;28;20273;-70
2021/12/10 09:18:39;;;;;;;21.33;13.40;;;;;;;11.73;100.00;-24144.56;5055256;28;20198;-71
2021/12/10 09:21:07;;;;;;;25.98;13.82;;;;;;;12.04;100.00;-24153.28;5055589;28;20155;-70
2021/12/10 09:23:32;;;;;;;28.23;14.70;;;;;;;12.12;100.00;-24155.38;5052148;28;20179;-70
2021/12/10 09:26:02;;;;;;;23.08;14.80;;;;;;;12.05;100.00;-24153.56;5050567;28;20178;-70
2021/12/10 09:28:28;;;;;;;22.80;13.85;;;;;;;12.12;100.00;-24155.38;5053865;28;20629;-71
2021/12/10 09:31:01;;;;;;;25.73;13.88;;;;;;;12.64;100.00;-24169.88;5054472;28;20217;-71
2021/12/10 09:33:26;;;;;;;24.67;13.80;;;;;;;12.78;100.00;-24173.81;5054620;28;20630;-71
2021/12/10 09:35:53;;;;;;;26.45;14.68;;;;;;;12.89;100.00;-24176.78;5052932;28;20258;-70
2021/12/10 09:38:20;;;;;;;29.10;15.20;;;;;;;13.20;100.00;-24185.50;5053050;28;20190;-70
2021/12/10 09:40:49;;;;;;;28.10;14.73;;;;;;;13.48;100.00;-24193.22;5052790;28;20175;-71
2021/12/10 09:43:16;;;;;;;24.90;14.13;;;;;;;13.48;100.00;-24193.22;5053363;28;20317;-72
2021/12/10 09:45:43;;;;;;;27.20;13.70;;;;;;;13.36;100.00;-24190.00;5053394;28;20246;-71
2021/12/10 09:48:12;;;;;;;23.10;13.10;;;;;;;13.62;100.00;-24197.28;5057311;28;20282;-71
2021/12/10 09:50:56;;;;;;;26.30;13.85;;;;;;;12.77;100.00;-24173.69;5056938;28;20190;-71
2021/12/10 09:53:25;;;;;;;24.95;13.85;;;;;;;12.69;100.00;-24171.44;5054551;28;20190;-70
2021/12/10 09:55:51;;;;;;;21.50;13.10;;;;;;;12.64;100.00;-24170.03;5054572;28;20171;-71
2021/12/10 09:58:18;;;;;;;22.17;12.65;;;;;;;12.77;100.00;-24173.53;5054225;28;20193;-70
2021/12/10 10:00:49;;;;;;;21.48;12.50;;;;;;;12.95;100.00;-24178.47;5056786;28;20265;-70
2021/12/10 10:03:17;;;;;;;24.60;13.43;;;;;;;12.66;100.00;-24170.59;5056913;28;20171;-72
2021/12/10 10:05:45;;;;;;;21.48;12.73;;;;;;;12.32;100.00;-24161.03;5054272;28;20622;-70
2021/12/10 10:08:16;;;;;;;21.65;12.45;;;;;;;12.48;100.00;-24165.53;5052748;28;20185;-70
2021/12/10 10:10:45;;;;;;;21.33;13.20;;;;;;;12.57;100.00;-24167.91;5054026;28;20244;-71
2021/12/10 10:13:12;;;;;;;21.38;12.68;;;;;;;12.33;100.00;-24161.44;5054356;28;20547;-71
2021/12/10 10:15:41;;;;;;;21.50;13.07;;;;;;;12.84;100.00;-24175.50;5052699;28;20171;-71
2021/12/10 10:18:09;;;;;;;24.10;13.15;;;;;;;12.50;100.00;-24165.94;5054065;28;20650;-71
2021/12/10 10:20:38;;;;;;;23.17;14.30;;;;;;;12.84;100.00;-24175.50;5053858;28;20244;-72
2021/12/10 10:23:06;;;;;;;23.38;13.93;;;;;;;12.78;100.00;-24173.81;5054261;28;20507;-74
2021/12/10 10:25:33;;;;;;;23.33;13.75;;;;;;;12.15;100.00;-24156.38;5052687;28;20281;-71
2021/12/10 10:28:00;;;;;;;21.92;15.00;;;;;;;12.50;100.00;-24166.09;5053071;28;20198;-71
2021/12/10 10:30:31;;;;;;;27.55;15.90;;;;;;;12.59;100.00;-24168.47;5051077;28;20194;-70
2021/12/10 10:33:00;;;;;;;31.25;16.15;;;;;;;12.37;100.00;-24162.44;5052125;28;20522;-70
2021/12/10 10:35:31;;;;;;;31.70;15.93;;;;;;;12.22;100.00;-24158.22;5049227;28;20183;-71
2021/12/10 10:37:58;;;;;;;24.25;15.95;;;;;;;12.72;100.00;-24172.28;5051605;28;20709;-72
2021/12/10 10:40:31;;;;;;;23.83;15.75;;;;;;;12.60;100.00;-24168.75;5050789;28;20228;-70
2021/12/10 10:42:58;;;;;;;27.55;16.25;;;;;;;13.02;100.00;-24180.44;5050408;28;20222;-70
2021/12/10 10:45:28;;;;;;;30.10;16.85;;;;;;;13.10;100.00;-24182.81;5049629;28;20355;-71
2021/12/10 10:47:56;;;;;;;30.08;17.60;;;;;;;13.21;100.00;-24185.78;5051606;28;20269;-71
2021/12/10 10:50:29;;;;;;;28.77;17.90;;;;;;;13.40;100.00;-24190.97;5052854;28;20182;-70
2021/12/10 10:52:59;;;;;;;33.75;19.02;;;;;;;13.36;100.00;-24190.00;5051447;28;20182;-71
2021/12/10 10:55:29;;;;;;;36.47;21.27;;;;;;;12.94;100.00;-24178.19;5050980;28;20183;-70
2021/12/10 10:58:02;;;;;;;36.05;19.00;;;;;;;12.85;100.00;-24175.94;5052040;28;20173;-71
2021/12/10 11:00:32;;;;;;;37.42;20.65;;;;;;;12.76;100.00;-24173.25;5051617;28;20220;-70
2021/12/10 11:03:07;;;;;;;36.80;20.50;;;;;;;12.92;100.00;-24177.75;5052590;28;20240;-70
2021/12/10 11:05:34;;;;;;;33.42;20.88;;;;;;;12.76;100.00;-24173.25;5052777;28;20209;-70
2021/12/10 11:08:04;;;;;;;37.70;20.63;;;;;;;13.02;100.00;-24180.44;5052551;28;20163;-72
2021/12/10 11:10:38;;;;;;;34.58;20.25;;;;;;;12.97;100.00;-24179.16;5050931;28;20179;-72
2021/12/10 11:13:10;;;;;;;33.13;20.23;;;;;;;13.25;100.00;-24186.91;5051878;28;20159;-72
2021/12/10 11:15:36;;;;;;;36.47;19.13;;;;;;;13.48;100.00;-24193.22;5052981;28;20274;-72
2021/12/10 11:18:02;;;;;;;34.05;20.08;;;;;;;13.99;100.00;-24207.41;5052374;28;20215;-71
2021/12/10 11:20:30;;;;;;;35.58;19.58;;;;;;;13.85;100.00;-24203.47;5052019;28;20187;-70